createdAt,value
2023-01-10T00:00:00.498Z,1
2023-01-10T00:04:00.484Z,1
2023-01-10T00:08:00.497Z,2
2023-01-10T00:12:00.468Z,1
2023-01-10T00:16:00.516Z,2
2023-01-10T00:20:00.495Z,1
2023-01-10T00:24:00.739Z,2
2023-01-10T00:28:00.453Z,2
2023-01-10T00:32:00.476Z,2
2023-01-10T00:36:00.595Z,2
2023-01-10T00:40:00.482Z,2
2023-01-10T00:44:00.543Z,1
2023-01-10T00:48:00.469Z,2
2023-01-10T00:52:00.484Z,2
2023-01-10T00:56:00.474Z,2
2023-01-10T01:00:00.491Z,2
2023-01-10T01:04:00.754Z,2
2023-01-10T01:08:00.500Z,2
2023-01-10T01:12:00.500Z,2
2023-01-10T01:16:00.665Z,2
2023-01-10T01:20:00.487Z,1
2023-01-10T01:24:00.503Z,2
2023-01-10T01:28:00.498Z,2
2023-01-10T01:32:00.480Z,2
2023-01-10T01:36:00.491Z,2
2023-01-10T01:40:00.500Z,2
2023-01-10T01:44:00.497Z,2
2023-01-10T01:48:00.474Z,2
2023-01-10T01:52:00.488Z,2
2023-01-10T01:56:00.485Z,2
2023-01-10T02:00:00.495Z,2
2023-01-10T02:04:00.584Z,2
2023-01-10T02:08:00.485Z,2
2023-01-10T02:12:00.493Z,2
2023-01-10T02:16:00.663Z,2
2023-01-10T02:20:00.491Z,2
2023-01-10T02:24:00.462Z,2
2023-01-10T02:28:00.470Z,2
2023-01-10T02:32:00.463Z,2
2023-01-10T02:36:00.493Z,2
2023-01-10T02:40:00.474Z,2
2023-01-10T02:44:00.523Z,2
2023-01-10T02:48:00.483Z,2
2023-01-10T02:52:00.485Z,2
2023-01-10T02:56:00.479Z,2
2023-01-10T03:00:00.515Z,2
2023-01-10T03:04:00.477Z,2
2023-01-10T03:08:00.497Z,2
2023-01-10T03:12:00.548Z,2
2023-01-10T03:16:00.587Z,2
2023-01-10T03:20:00.491Z,2
2023-01-10T03:24:00.468Z,2
2023-01-10T03:28:00.487Z,3
2023-01-10T03:32:00.514Z,2
2023-01-10T03:36:00.471Z,2
2023-01-10T03:40:00.464Z,2
2023-01-10T03:44:00.483Z,2
2023-01-10T03:48:00.484Z,3
2023-01-10T03:52:00.455Z,2
2023-01-10T03:56:00.480Z,2
2023-01-10T04:00:00.503Z,3
2023-01-10T04:04:00.543Z,3
2023-01-10T04:08:00.497Z,3
2023-01-10T04:12:00.491Z,3
2023-01-10T04:16:00.573Z,3
2023-01-10T04:20:00.500Z,2
2023-01-10T04:24:00.485Z,3
2023-01-10T04:28:00.518Z,3
2023-01-10T04:32:00.488Z,4
2023-01-10T04:36:00.494Z,3
2023-01-10T04:40:00.812Z,3
2023-01-10T04:44:00.492Z,4
2023-01-10T04:48:00.464Z,3
2023-01-10T04:52:00.510Z,4
2023-01-10T04:56:00.463Z,4
2023-01-10T05:00:00.492Z,4
2023-01-10T05:04:00.510Z,4
2023-01-10T05:08:00.498Z,4
2023-01-10T05:12:00.501Z,4
2023-01-10T05:16:00.464Z,4
2023-01-10T05:20:00.476Z,4
2023-01-10T05:24:00.500Z,4
2023-01-10T05:28:00.488Z,4
2023-01-10T05:32:00.580Z,4
2023-01-10T05:36:00.472Z,4
2023-01-10T05:40:00.506Z,4
2023-01-10T05:44:00.465Z,4
2023-01-10T05:48:00.515Z,4
2023-01-10T05:52:00.475Z,4
2023-01-10T05:56:00.527Z,4
2023-01-10T06:00:00.713Z,5
2023-01-10T06:04:00.488Z,4
2023-01-10T06:08:00.477Z,4
2023-01-10T06:12:00.498Z,4
2023-01-10T06:16:00.594Z,4
2023-01-10T06:20:00.497Z,4
2023-01-10T06:24:00.482Z,4
2023-01-10T06:28:00.506Z,4
2023-01-10T06:32:00.470Z,4
2023-01-10T06:36:00.479Z,5
2023-01-10T06:40:00.476Z,5
2023-01-10T06:44:00.492Z,5
2023-01-10T06:48:00.474Z,5
2023-01-10T06:52:00.503Z,4
2023-01-10T06:56:00.483Z,4
2023-01-10T07:00:00.467Z,4
2023-01-10T07:04:00.538Z,5
2023-01-10T07:08:00.466Z,5
2023-01-10T07:12:00.503Z,5
2023-01-10T07:16:00.496Z,6
2023-01-10T07:20:00.489Z,6
2023-01-10T07:24:02.525Z,6
2023-01-10T07:28:00.478Z,6
2023-01-10T07:32:00.526Z,6
2023-01-10T07:36:00.472Z,7
2023-01-10T07:40:00.528Z,5
2023-01-10T07:44:00.479Z,5
2023-01-10T07:48:00.488Z,5
2023-01-10T07:52:00.470Z,6
2023-01-10T07:56:00.495Z,6
2023-01-10T08:00:00.514Z,5
2023-01-10T08:04:00.495Z,5
2023-01-10T08:08:00.519Z,6
2023-01-10T08:12:00.514Z,6
2023-01-10T08:16:00.554Z,6
2023-01-10T08:20:00.489Z,6
2023-01-10T08:24:00.489Z,6
2023-01-10T08:28:00.494Z,6
2023-01-10T08:32:00.486Z,7
2023-01-10T08:36:00.492Z,6
2023-01-10T08:40:00.465Z,6
2023-01-10T08:44:00.474Z,5
2023-01-10T08:48:00.495Z,6
2023-01-10T08:52:00.459Z,6
2023-01-10T08:56:00.495Z,5
2023-01-10T09:00:00.511Z,6
2023-01-10T09:04:00.509Z,6
2023-01-10T09:08:00.584Z,6
2023-01-10T09:12:00.483Z,5
2023-01-10T09:16:00.578Z,6
2023-01-10T09:20:00.484Z,6
2023-01-10T09:24:00.492Z,7
2023-01-10T09:28:00.465Z,7
2023-01-10T09:32:00.508Z,6
2023-01-10T09:36:00.479Z,6
2023-01-10T09:40:00.504Z,6
2023-01-10T09:44:01.306Z,6
2023-01-10T09:48:00.519Z,6
2023-01-10T09:52:00.483Z,5
2023-01-10T09:56:00.488Z,5
2023-01-10T10:00:00.465Z,6
2023-01-10T10:04:00.584Z,5
2023-01-10T10:08:00.476Z,5
2023-01-10T10:12:00.758Z,5
2023-01-10T10:16:00.602Z,5
2023-01-10T10:20:00.518Z,5
2023-01-10T10:24:00.479Z,5
2023-01-10T10:28:00.489Z,5
2023-01-10T10:32:00.473Z,5
2023-01-10T10:36:00.492Z,5
2023-01-10T10:40:00.710Z,4
2023-01-10T10:44:00.512Z,4
2023-01-10T10:48:00.575Z,4
2023-01-10T10:52:00.477Z,4
2023-01-10T10:56:00.485Z,4
2023-01-10T11:00:00.464Z,4
2023-01-10T11:04:00.505Z,3
2023-01-10T11:08:00.512Z,4
2023-01-10T11:12:00.479Z,3
2023-01-10T11:16:00.546Z,4
2023-01-10T11:20:00.467Z,3
2023-01-10T11:24:00.517Z,3
2023-01-10T11:28:00.500Z,3
2023-01-10T11:32:00.572Z,3
2023-01-10T11:36:00.464Z,3
2023-01-10T11:40:00.486Z,3
2023-01-10T11:44:00.484Z,3
2023-01-10T11:48:00.485Z,3
2023-01-10T11:52:00.460Z,3
2023-01-10T11:56:00.514Z,4
2023-01-10T12:00:00.456Z,3
2023-01-10T12:04:00.477Z,4
2023-01-10T12:08:00.499Z,3
2023-01-10T12:12:00.489Z,4
2023-01-10T12:16:00.496Z,4
2023-01-10T12:20:01.650Z,3
2023-01-10T12:24:00.497Z,3
2023-01-10T12:28:00.547Z,5
2023-01-10T12:32:00.477Z,5
2023-01-10T12:36:00.492Z,5
2023-01-10T12:40:00.507Z,4
2023-01-10T12:44:00.470Z,4
2023-01-10T12:48:00.497Z,5
2023-01-10T12:52:00.482Z,4
2023-01-10T12:56:00.503Z,4
2023-01-10T13:00:00.461Z,4
2023-01-10T13:04:00.519Z,4
2023-01-10T13:08:00.528Z,3
2023-01-10T13:12:00.506Z,3
2023-01-10T13:16:00.546Z,3
2023-01-10T13:20:00.493Z,2
2023-01-10T13:24:00.494Z,3
2023-01-10T13:28:00.492Z,2
2023-01-10T13:32:00.462Z,2
2023-01-10T13:36:00.470Z,2
2023-01-10T13:40:00.497Z,3
2023-01-10T13:44:00.512Z,2
2023-01-10T13:48:00.470Z,2
2023-01-10T13:52:00.513Z,2
2023-01-10T13:56:00.489Z,2
2023-01-10T14:00:00.502Z,2
2023-01-10T14:04:00.500Z,2
2023-01-10T14:08:00.478Z,2
2023-01-10T14:12:00.530Z,2
2023-01-10T14:16:00.577Z,2
2023-01-10T14:20:00.497Z,2
2023-01-10T14:24:00.525Z,2
2023-01-10T14:28:00.482Z,2
2023-01-10T14:32:00.480Z,2
2023-01-10T14:36:00.472Z,2
2023-01-10T14:40:00.487Z,2
2023-01-10T14:44:00.493Z,3
2023-01-10T14:48:00.491Z,2
2023-01-10T14:52:00.491Z,2
2023-01-10T14:56:00.504Z,3
2023-01-10T15:00:00.488Z,3
2023-01-10T15:04:00.514Z,3
2023-01-10T15:08:00.514Z,3
2023-01-10T15:12:01.291Z,3
2023-01-10T15:16:00.580Z,3
2023-01-10T15:20:00.484Z,2
2023-01-10T15:24:00.498Z,3
2023-01-10T15:28:00.486Z,3
2023-01-10T15:32:00.508Z,3
2023-01-10T15:36:00.492Z,3
2023-01-10T15:40:00.568Z,3
2023-01-10T15:44:00.482Z,3
2023-01-10T15:48:00.505Z,4
2023-01-10T15:52:00.480Z,3
2023-01-10T15:56:00.500Z,3
2023-01-10T16:00:00.655Z,4
2023-01-10T16:04:00.515Z,4
2023-01-10T16:08:00.484Z,4
2023-01-10T16:12:00.487Z,5
2023-01-10T16:16:00.605Z,5
2023-01-10T16:20:00.504Z,5
2023-01-10T16:24:00.467Z,4
2023-01-10T16:28:00.495Z,5
2023-01-10T16:32:00.495Z,5
2023-01-10T16:36:00.515Z,5
2023-01-10T16:40:00.481Z,6
2023-01-10T16:44:00.480Z,5
2023-01-10T16:48:00.474Z,4
2023-01-10T16:52:00.508Z,9
2023-01-10T16:56:00.502Z,6
2023-01-10T17:00:00.472Z,6
2023-01-10T17:04:00.567Z,16
2023-01-10T17:08:00.470Z,13
2023-01-10T17:12:00.474Z,18
2023-01-10T17:16:00.661Z,12
2023-01-10T17:20:00.492Z,9
2023-01-10T17:24:00.471Z,10
2023-01-10T17:28:00.510Z,8
2023-01-10T17:32:00.502Z,6
2023-01-10T17:36:00.508Z,6
2023-01-10T17:40:00.504Z,5
2023-01-10T17:44:00.487Z,5
2023-01-10T17:48:00.460Z,5
2023-01-10T17:52:00.483Z,4
2023-01-10T17:56:00.501Z,4
2023-01-10T18:00:00.481Z,5
2023-01-10T18:04:00.498Z,4
2023-01-10T18:08:00.467Z,5
2023-01-10T18:12:00.524Z,7
2023-01-10T18:16:00.475Z,5
2023-01-10T18:20:00.496Z,4
2023-01-10T18:24:00.497Z,5
2023-01-10T18:28:00.482Z,4
2023-01-10T18:32:00.504Z,4
2023-01-10T18:36:00.483Z,4
2023-01-10T18:40:00.485Z,4
2023-01-10T18:44:00.488Z,4
2023-01-10T18:48:00.485Z,4
2023-01-10T18:52:00.488Z,4
2023-01-10T18:56:00.509Z,4
2023-01-10T19:00:00.479Z,4
2023-01-10T19:04:00.504Z,5
2023-01-10T19:08:00.486Z,6
2023-01-10T19:12:00.549Z,16
2023-01-10T19:16:00.544Z,18
2023-01-10T19:20:00.479Z,26
2023-01-10T19:24:00.490Z,22
2023-01-10T19:28:00.500Z,18
2023-01-10T19:32:00.563Z,17
2023-01-10T19:36:00.459Z,16
2023-01-10T19:40:00.511Z,14
2023-01-10T19:44:00.481Z,9
2023-01-10T19:48:00.502Z,9
2023-01-10T19:52:00.485Z,8
2023-01-10T19:56:00.487Z,7
2023-01-10T20:00:00.504Z,7
2023-01-10T20:04:00.455Z,7
2023-01-10T20:08:00.495Z,6
2023-01-10T20:12:00.963Z,6
2023-01-10T20:16:00.520Z,5
2023-01-10T20:20:00.525Z,5
2023-01-10T20:24:00.503Z,5
2023-01-10T20:28:00.502Z,4
2023-01-10T20:32:00.479Z,4
2023-01-10T20:36:00.519Z,4
2023-01-10T20:40:00.487Z,4
2023-01-10T20:44:00.459Z,4
2023-01-10T20:48:00.491Z,5
2023-01-10T20:52:00.527Z,6
2023-01-10T20:56:00.766Z,7
2023-01-10T21:00:00.514Z,6
2023-01-10T21:04:00.502Z,7
2023-01-10T21:08:00.497Z,6
2023-01-10T21:12:13.781Z,6
2023-01-10T21:16:00.539Z,6
2023-01-10T21:20:00.473Z,6
2023-01-10T21:24:00.513Z,6
2023-01-10T21:28:00.480Z,5
2023-01-10T21:32:00.493Z,5
2023-01-10T21:36:00.466Z,5
2023-01-10T21:40:00.510Z,6
2023-01-10T21:44:00.487Z,5
2023-01-10T21:48:00.496Z,4
2023-01-10T21:52:00.511Z,5
2023-01-10T21:56:00.507Z,4
2023-01-10T22:00:00.504Z,4
2023-01-10T22:04:00.597Z,4
2023-01-10T22:08:00.509Z,4
2023-01-10T22:12:00.459Z,4
2023-01-10T22:16:00.571Z,5
2023-01-10T22:20:00.490Z,4
2023-01-10T22:24:00.493Z,4
2023-01-10T22:28:00.498Z,4
2023-01-10T22:32:00.498Z,5
2023-01-10T22:36:00.702Z,5
2023-01-10T22:40:00.498Z,4
2023-01-10T22:44:00.499Z,4
2023-01-10T22:48:00.511Z,4
2023-01-10T22:52:00.506Z,4
2023-01-10T22:56:00.506Z,4
2023-01-10T23:00:00.519Z,4
2023-01-10T23:04:00.529Z,4
2023-01-10T23:08:00.506Z,3
2023-01-10T23:12:00.519Z,3
2023-01-10T23:16:00.519Z,3
2023-01-10T23:20:00.534Z,3
2023-01-10T23:24:00.493Z,3
2023-01-10T23:28:00.499Z,4
2023-01-10T23:32:00.525Z,3
2023-01-10T23:36:00.512Z,3
2023-01-10T23:40:00.497Z,3
2023-01-10T23:44:00.484Z,3
2023-01-10T23:48:00.516Z,3
2023-01-10T23:52:00.492Z,3
2023-01-10T23:56:00.462Z,3
